Time;durP1;ratioP1;P1;durP2;ratioP2;P2;SDS_P1;SDS_P2;PMS_P1;PMS_P2;Temp;Humidity;BMP_temperature;BMP_pressure;BME280_temperature;BME280_humidity;BME280_pressure;Samples;Min_cycle;Max_cycle;Signal;HPM_P1;HPM_P2
2022/08/12 00:44:14;;;;;;;5.63;2.10;;;;;;;24.68;30.35;100671.69;4138409;28;20038;-63
2022/08/12 00:46:35;;;;;;;5.60;2.90;;;;;;;24.65;30.64;100667.34;4124705;28;20051;-63
2022/08/12 00:48:40;;;;;;;3.22;2.17;;;;;;;24.60;30.90;100665.81;4141085;28;20073;-63
2022/08/12 00:50:47;;;;;;;3.78;1.92;;;;;;;24.57;30.95;100666.75;4148516;28;20038;-63
2022/08/12 00:52:53;;;;;;;7.38;3.03;;;;;;;24.55;30.89;100671.28;4141081;28;20052;-63
2022/08/12 00:54:57;;;;;;;6.10;2.47;;;;;;;24.56;31.12;100667.69;4145995;28;20113;-63
2022/08/12 00:57:03;;;;;;;;;;;;;;;24.38;31.29;100671.97;4149387;28;20054;-63
2022/08/12 00:59:07;;;;;;;5.03;2.50;;;;;;;24.40;31.22;100663.00;4147921;28;19925;-63
2022/08/12 01:01:10;;;;;;;5.25;2.40;;;;;;;24.46;31.71;100672.53;4148145;28;20120;-63
2022/08/12 01:03:19;;;;;;;5.22;2.45;;;;;;;24.44;31.44;100671.69;4139029;28;20042;-63
2022/08/12 01:12:35;;;;;;;7.18;2.33;;;;;;;24.28;32.37;100676.75;4139212;28;20120;-63
2022/08/12 01:14:39;;;;;;;5.18;2.58;;;;;;;24.26;32.34;100673.31;4143023;28;20048;-63
2022/08/12 01:16:42;;;;;;;4.70;2.25;;;;;;;24.25;32.40;100674.22;4139437;28;20038;-63
2022/08/12 01:18:46;;;;;;;6.15;2.75;;;;;;;24.27;31.55;100674.16;4149849;28;20055;-63
2022/08/12 01:21:11;;;;;;;5.55;2.42;;;;;;;24.23;31.64;100674.28;4149220;28;20061;-63
2022/08/12 01:23:31;;;;;;;3.63;2.28;;;;;;;24.30;31.23;100669.63;4133272;28;20385;-63
2022/08/12 01:25:38;;;;;;;5.38;2.53;;;;;;;24.29;31.11;100667.03;4124434;28;20415;-63
2022/08/12 01:28:01;;;;;;;4.20;2.20;;;;;;;24.28;31.12;100663.47;4142696;28;20077;-63
2022/08/12 01:30:07;;;;;;;4.97;2.30;;;;;;;24.25;31.59;100665.41;4140552;28;20048;-63
2022/08/12 01:32:13;;;;;;;4.43;2.28;;;;;;;24.24;31.34;100667.22;4143840;28;20046;-63
2022/08/12 01:34:22;;;;;;;3.85;1.83;;;;;;;24.26;31.29;100672.47;4147461;28;20408;-63
2022/08/12 01:36:42;;;;;;;4.93;2.05;;;;;;;24.24;31.22;100672.53;4142116;28;20129;-64
2022/08/12 01:38:47;;;;;;;5.38;2.35;;;;;;;24.25;31.21;100676.88;4160764;28;20030;-63
2022/08/12 01:40:55;;;;;;;7.13;2.08;;;;;;;24.25;31.15;100682.19;4144140;28;20034;-63
2022/08/12 01:43:02;;;;;;;5.35;2.20;;;;;;;24.30;30.80;100679.34;4141380;28;20050;-64
2022/08/12 01:45:07;;;;;;;3.55;1.70;;;;;;;24.22;31.15;100679.66;4146291;28;20052;-64
2022/08/12 01:47:29;;;;;;;4.50;1.92;;;;;;;24.24;31.03;100667.22;4146327;28;20488;-63
2022/08/12 01:49:53;;;;;;;5.85;2.00;;;;;;;24.27;30.95;100674.16;4151894;28;20103;-63
2022/08/12 01:52:03;;;;;;;4.53;2.00;;;;;;;24.31;30.76;100671.34;4155296;28;20371;-63
2022/08/12 01:54:26;;;;;;;4.72;2.03;;;;;;;24.27;31.09;100675.06;4147214;28;20293;-63
2022/08/12 01:56:42;;;;;;;2.63;1.70;;;;;;;24.28;31.03;100676.75;4143053;28;20048;-64
2022/08/12 02:01:11;;;;;;;4.72;1.75;;;;;;;24.25;31.13;100676.03;4141459;28;20057;-63
2022/08/12 02:03:27;;;;;;;4.47;2.00;;;;;;;24.28;31.09;100671.44;4145802;28;20132;-63
2022/08/12 02:13:23;;;;;;;2.05;1.80;;;;;;;24.19;32.08;100666.50;4146254;28;20038;-63
2022/08/12 02:15:56;;;;;;;5.15;2.55;;;;;;;24.12;32.20;100665.00;4143211;28;20041;-63
2022/08/12 02:18:12;;;;;;;2.90;2.20;;;;;;;24.09;32.46;100662.47;4145035;28;20510;-63
2022/08/12 02:20:23;;;;;;;2.90;1.63;;;;;;;24.10;32.52;100673.03;4150424;28;20449;-62
2022/08/12 02:22:46;;;;;;;3.15;1.70;;;;;;;23.99;32.94;100665.50;4133508;28;20038;-63
2022/08/12 02:24:50;;;;;;;3.23;1.80;;;;;;;23.99;32.93;100670.81;4139788;28;20047;-63
2022/08/12 02:26:56;;;;;;;2.28;1.50;;;;;;;24.00;33.06;100669.00;4145054;28;20042;-63
2022/08/12 02:29:01;;;;;;;5.45;2.45;;;;;;;24.03;33.18;100672.44;4147645;28;20038;-63
2022/08/12 02:31:07;;;;;;;3.78;1.88;;;;;;;23.99;33.37;100670.81;4139677;28;20033;-62
2022/08/12 02:33:11;;;;;;;4.72;2.28;;;;;;;23.95;33.47;100665.69;4139062;28;20049;-63
2022/08/12 02:35:18;;;;;;;3.10;1.90;;;;;;;23.91;33.70;100662.25;4148268;28;20041;-62
2022/08/12 02:37:23;;;;;;;4.40;1.85;;;;;;;23.87;33.67;100660.66;4138725;28;20145;-63
2022/08/12 02:39:29;;;;;;;2.78;1.63;;;;;;;23.81;34.21;100660.84;4145602;28;20491;-63
2022/08/12 02:41:36;;;;;;;8.30;2.22;;;;;;;23.78;34.12;100664.47;4142179;28;20529;-63
2022/08/12 02:43:45;;;;;;;2.08;1.70;;;;;;;23.68;34.24;100661.31;4139582;28;20038;-63
2022/08/12 02:45:55;;;;;;;4.28;2.03;;;;;;;23.65;34.66;100658.75;4138321;28;20042;-63
2022/08/12 02:48:05;;;;;;;4.07;1.83;;;;;;;23.62;34.76;100661.53;4141480;28;22717;-63
2022/08/12 02:50:10;;;;;;;3.08;1.85;;;;;;;23.61;34.96;100665.13;4145260;28;20050;-63
2022/08/12 02:52:15;;;;;;;3.72;2.20;;;;;;;23.59;35.21;100666.97;4147314;28;20096;-62
2022/08/12 02:54:17;;;;;;;2.42;1.75;;;;;;;23.58;35.41;100662.56;4142842;28;20400;-63
2022/08/12 02:56:20;;;;;;;5.25;1.77;;;;;;;23.59;35.67;100664.31;4145591;28;20076;-63
2022/08/12 02:58:25;;;;;;;4.07;1.98;;;;;;;23.57;35.84;100663.50;4146142;28;20433;-63
2022/08/12 03:00:36;;;;;;;3.55;2.03;;;;;;;23.42;35.59;100669.34;4136481;28;20073;-63
2022/08/12 03:02:44;;;;;;;3.95;1.88;;;;;;;23.35;35.68;100672.22;4135860;28;20049;-63
2022/08/12 03:04:52;;;;;;;3.05;1.90;;;;;;;23.31;35.59;100667.94;4147195;28;20048;-63
2022/08/12 03:07:09;;;;;;;5.22;1.98;;;;;;;23.26;35.50;100674.34;4146911;28;20157;-63
2022/08/12 03:09:16;;;;;;;5.18;2.10;;;;;;;23.15;35.67;100667.63;4147426;28;20471;-63
2022/08/12 03:11:25;;;;;;;4.13;2.20;;;;;;;23.14;35.77;100671.22;4147465;28;20046;-63
2022/08/12 03:13:34;;;;;;;5.60;2.38;;;;;;;23.05;36.22;100670.63;4147822;28;20038;-63
2022/08/12 03:15:37;;;;;;;5.97;2.40;;;;;;;23.09;36.32;100682.88;4148089;28;20048;-63
2022/08/12 03:17:50;;;;;;;3.10;1.85;;;;;;;23.16;36.44;100674.66;4148150;28;20065;-63
2022/08/12 03:20:16;;;;;;;3.78;2.10;;;;;;;23.13;36.25;100676.53;4148002;28;20041;-63
2022/08/12 03:22:20;;;;;;;7.80;2.35;;;;;;;23.09;36.46;100669.59;4147867;28;20037;-63
2022/08/12 03:24:26;;;;;;;4.60;2.65;;;;;;;22.95;36.72;100670.91;4146331;28;20050;-63
2022/08/12 03:26:30;;;;;;;6.40;2.55;;;;;;;22.92;37.04;100680.78;4141111;28;20044;-63
2022/08/12 03:28:54;;;;;;;;;;;;;;;22.65;37.58;100686.94;4148843;28;20520;-63
2022/08/12 03:31:01;;;;;;;6.20;2.60;;;;;;;22.61;37.65;100690.59;4132273;28;19922;-63
2022/08/12 03:33:06;;;;;;;3.35;2.50;;;;;;;22.62;37.57;100686.19;4138239;28;20096;-63
2022/08/12 03:35:12;;;;;;;7.38;3.00;;;;;;;22.55;37.86;100692.59;4143509;28;20515;-63
2022/08/12 03:37:37;;;;;;;5.80;2.53;;;;;;;22.45;38.20;100692.88;4136563;28;20056;-63
2022/08/12 03:39:44;;;;;;;;;;;;;;;22.33;38.41;100693.25;4139612;28;20038;-63
2022/08/12 03:41:57;;;;;;;3.78;2.53;;;;;;;22.52;38.13;100690.06;4143979;28;19921;-63
2022/08/12 04:00:44;;;;;;;6.05;3.08;;;;;;;23.29;37.71;100701.63;4152620;28;20045;-69
2022/08/12 04:02:57;;;;;;;6.85;2.97;;;;;;;23.34;37.23;100704.13;4156484;28;20041;-69
2022/08/12 04:05:03;;;;;;;5.55;2.90;;;;;;;23.39;37.04;100696.84;4160219;28;20097;-68
2022/08/12 04:07:08;;;;;;;6.43;2.65;;;;;;;23.39;37.14;100704.81;4160636;28;20538;-68
2022/08/12 04:09:11;;;;;;;9.23;3.03;;;;;;;23.47;36.98;100709.88;4157630;28;20555;-69
2022/08/12 04:13:49;;;;;;;9.70;3.00;;;;;;;23.39;37.23;100711.91;4159249;28;20558;-68
2022/08/12 04:15:52;;;;;;;6.13;2.80;;;;;;;23.37;37.40;100709.31;4158762;28;20444;-69
2022/08/12 04:17:57;;;;;;;7.05;3.05;;;;;;;23.35;37.30;100709.38;4170095;28;20454;-69
2022/08/12 04:20:12;;;;;;;6.53;2.67;;;;;;;23.30;37.27;100711.31;4163863;28;20045;-69
2022/08/12 04:22:15;;;;;;;5.30;3.00;;;;;;;23.27;37.66;100716.72;4162062;28;20463;-69
2022/08/12 04:24:20;;;;;;;9.75;2.75;;;;;;;23.24;37.69;100713.31;4157716;28;20041;-69
2022/08/12 04:26:23;;;;;;;3.40;2.60;;;;;;;23.19;37.85;100713.50;4159042;28;20064;-69
2022/08/12 04:28:27;;;;;;;6.03;2.60;;;;;;;23.13;37.91;100717.22;4178236;28;20506;-69
2022/08/12 04:30:30;;;;;;;;;;;;;;;22.92;38.33;100702.84;4162478;28;20384;-69
2022/08/12 04:32:35;;;;;;;5.68;2.72;;;;;;;23.00;38.50;100711.41;4158711;28;20918;-69
2022/08/12 04:34:45;;;;;;;7.05;3.00;;;;;;;23.09;38.25;100712.03;4162134;28;20057;-69
2022/08/12 04:36:49;;;;;;;7.85;3.05;;;;;;;23.13;38.18;100706.59;4175934;28;20402;-69
2022/08/12 04:38:53;;;;;;;3.88;2.50;;;;;;;23.16;38.29;100710.94;4144254;28;20096;-69
2022/08/12 04:41:02;;;;;;;5.60;3.10;;;;;;;23.11;38.06;100713.72;4161766;28;20033;-69
2022/08/12 04:43:05;;;;;;;11.27;3.30;;;;;;;22.96;38.85;100709.78;4161809;28;20071;-70
2022/08/12 04:45:29;;;;;;;5.85;2.75;;;;;;;22.78;39.13;100715.69;4159422;28;20033;-69
2022/08/12 04:47:32;;;;;;;4.78;2.70;;;;;;;22.72;39.25;100715.88;4156297;28;20068;-70
2022/08/12 04:49:37;;;;;;;7.88;2.80;;;;;;;22.83;39.11;100716.41;4175865;28;20216;-70
2022/08/12 04:51:40;;;;;;;4.68;3.08;;;;;;;22.92;39.04;100712.59;4155553;28;20458;-69
2022/08/12 04:53:56;;;;;;;7.28;3.03;;;;;;;23.01;38.94;100707.88;4160820;28;20095;-70
2022/08/12 04:56:00;;;;;;;6.53;2.67;;;;;;;23.00;39.37;100714.06;4159569;28;20529;-70
2022/08/12 04:58:03;;;;;;;9.05;3.20;;;;;;;22.96;39.47;100715.09;4158016;28;20462;-70
2022/08/12 05:00:09;;;;;;;8.25;2.72;;;;;;;22.98;39.26;100713.28;4158317;28;20049;-70
2022/08/12 05:02:12;;;;;;;7.75;2.60;;;;;;;23.01;39.30;100715.81;4157730;28;20039;-70
2022/08/12 05:04:21;;;;;;;6.28;3.03;;;;;;;23.07;39.54;100712.09;4157745;28;20057;-70
2022/08/12 05:06:25;;;;;;;6.15;2.92;;;;;;;23.09;39.17;100714.69;4157772;28;20045;-70
2022/08/12 05:08:29;;;;;;;8.55;3.67;;;;;;;23.12;39.39;100712.81;4157135;28;20026;-70
2022/08/12 05:10:34;;;;;;;9.55;3.70;;;;;;;23.15;38.99;100711.84;4160182;28;20411;-70
2022/08/12 05:12:41;;;;;;;13.85;3.78;;;;;;;23.00;39.25;100719.38;4159288;28;20128;-70
2022/08/12 05:14:44;;;;;;;12.40;3.33;;;;;;;22.91;39.56;100711.75;4158695;28;20253;-70
2022/08/12 05:16:47;;;;;;;8.52;3.40;;;;;;;22.88;39.80;100721.56;4160040;28;20053;-70
2022/08/12 05:18:51;;;;;;;15.90;4.18;;;;;;;22.87;39.77;100720.72;4156160;28;20109;-70
2022/08/12 05:20:55;;;;;;;15.48;4.00;;;;;;;22.82;39.87;100723.50;4159252;28;20033;-70
2022/08/12 05:23:06;;;;;;;11.30;4.35;;;;;;;22.84;39.88;100726.13;4155361;28;20042;-70
2022/08/12 05:25:15;;;;;;;9.25;3.85;;;;;;;22.81;40.05;100727.06;4158787;28;20081;-70
2022/08/12 05:27:22;;;;;;;7.10;3.30;;;;;;;22.81;40.00;100729.72;4155831;28;20073;-70
2022/08/12 05:29:28;;;;;;;10.18;3.55;;;;;;;22.90;39.71;100725.03;4157647;28;20422;-70
2022/08/12 05:31:54;;;;;;;8.00;3.72;;;;;;;22.92;40.01;100732.00;4162797;28;20045;-70
2022/08/12 05:33:57;;;;;;;8.52;3.80;;;;;;;22.89;39.92;100731.25;4160610;28;20563;-70
2022/08/12 05:35:59;;;;;;;9.88;4.10;;;;;;;23.02;39.47;100730.78;4153329;28;20495;-70
2022/08/12 05:40:23;;;;;;;9.52;3.65;;;;;;;22.99;39.52;100741.50;4159418;28;20129;-70
2022/08/12 05:42:27;;;;;;;6.65;3.22;;;;;;;23.05;39.06;100743.09;4157867;28;20044;-70
2022/08/12 05:44:44;;;;;;;9.02;3.88;;;;;;;23.13;38.81;100737.53;4156324;28;20278;-70
2022/08/12 05:46:47;;;;;;;17.00;3.75;;;;;;;23.18;38.55;100743.56;4155001;28;20034;-70
2022/08/12 05:48:51;;;;;;;9.25;3.40;;;;;;;23.18;38.55;100749.75;4173866;28;20446;-69
2022/08/12 05:50:55;;;;;;;9.15;3.45;;;;;;;23.20;38.60;100749.69;4159420;28;20400;-69
2022/08/12 05:52:58;;;;;;;7.95;3.30;;;;;;;23.20;38.50;100748.81;4158015;28;20363;-69
2022/08/12 05:55:01;;;;;;;9.88;3.75;;;;;;;23.31;37.88;100758.16;4156073;28;20045;-70
2022/08/12 05:57:05;;;;;;;11.43;3.75;;;;;;;23.35;37.86;100759.78;4156512;28;20050;-70
2022/08/12 05:59:10;;;;;;;11.02;3.35;;;;;;;23.29;37.73;100756.47;4159640;28;20454;-69
2022/08/12 06:01:14;;;;;;;8.30;3.05;;;;;;;23.29;37.84;100759.13;4159632;28;20085;-69
2022/08/12 06:03:37;;;;;;;9.75;3.47;;;;;;;23.37;37.53;100759.72;4161953;28;20037;-69
2022/08/12 06:05:43;;;;;;;8.30;3.38;;;;;;;23.42;37.40;100754.25;4158440;28;20095;-69
2022/08/12 06:07:57;;;;;;;12.00;4.70;;;;;;;23.50;37.10;100762.84;4154574;28;20038;-69
2022/08/12 06:10:05;;;;;;;7.03;3.67;;;;;;;23.50;37.45;100757.53;4153940;28;20084;-69
2022/08/12 06:12:08;;;;;;;13.65;3.42;;;;;;;23.55;36.91;100754.72;4149952;28;20046;-69
2022/08/12 06:14:13;;;;;;;9.52;3.10;;;;;;;23.61;36.62;100754.47;4161469;28;20045;-69
2022/08/12 06:16:21;;;;;;;8.88;3.30;;;;;;;23.59;36.44;100757.19;4159761;28;20033;-69
2022/08/12 06:18:23;;;;;;;7.07;2.83;;;;;;;23.60;35.87;100752.78;4162234;28;20392;-70
2022/08/12 06:20:32;;;;;;;5.85;2.65;;;;;;;23.55;36.52;100760.00;4160409;28;20056;-69
2022/08/12 06:22:36;;;;;;;6.68;3.05;;;;;;;23.68;35.79;100758.66;4158187;28;20381;-70
2022/08/12 06:24:39;;;;;;;13.27;2.78;;;;;;;23.70;35.86;100764.78;4161797;28;20132;-70
2022/08/12 06:26:42;;;;;;;7.82;3.10;;;;;;;23.70;35.76;100765.66;4156166;28;20049;-70
2022/08/12 06:28:47;;;;;;;10.52;3.00;;;;;;;23.74;36.25;100762.88;4157018;28;20100;-70
2022/08/12 06:30:52;;;;;;;7.22;3.10;;;;;;;23.79;36.27;100764.47;4157021;28;20044;-69
2022/08/12 06:33:15;;;;;;;7.00;2.70;;;;;;;23.88;36.13;100760.63;4155798;28;20400;-70
2022/08/12 06:35:26;;;;;;;11.20;2.67;;;;;;;23.94;35.94;100764.84;4157314;28;20034;-69
2022/08/12 06:37:51;;;;;;;7.78;2.58;;;;;;;24.07;35.25;100763.47;4154143;28;20091;-70
2022/08/12 06:39:59;;;;;;;10.13;2.53;;;;;;;24.09;35.13;100763.41;4159040;28;20079;-69
2022/08/12 06:44:34;;;;;;;5.75;2.25;;;;;;;24.14;35.44;100758.81;4159049;28;20083;-69
2022/08/12 06:46:38;;;;;;;11.55;2.53;;;;;;;24.26;35.20;100753.03;4158541;28;20041;-69
2022/08/12 06:48:42;;;;;;;6.47;2.70;;;;;;;24.40;34.63;100761.34;4158309;28;20065;-70
2022/08/12 06:50:48;;;;;;;4.15;2.35;;;;;;;24.43;34.12;100755.03;4158671;28;20458;-69
2022/08/12 06:52:51;;;;;;;4.78;2.15;;;;;;;24.39;34.26;100756.94;4185556;28;20049;-70
2022/08/12 06:54:54;;;;;;;4.47;2.10;;;;;;;24.49;33.83;100759.25;4161849;28;20095;-70
2022/08/12 06:56:57;;;;;;;4.85;2.38;;;;;;;24.46;33.96;100759.34;4154128;28;20034;-69
2022/08/12 06:59:20;;;;;;;8.90;1.92;;;;;;;24.50;33.94;100748.56;4158253;28;20068;-68
2022/08/12 07:01:23;;;;;;;6.63;2.20;;;;;;;24.58;33.81;100742.94;4155747;28;20041;-70
2022/08/12 07:03:28;;;;;;;8.65;2.35;;;;;;;24.60;34.42;100749.06;4157423;28;20037;-69
2022/08/12 07:05:31;;;;;;;3.97;2.35;;;;;;;24.59;33.96;100755.34;4158918;28;20038;-70
2022/08/12 07:07:37;;;;;;;7.82;2.22;;;;;;;24.64;34.31;100749.84;4158285;28;20080;-69
2022/08/12 07:09:43;;;;;;;8.82;2.60;;;;;;;24.79;33.50;100748.34;4159100;28;20080;-70
2022/08/12 07:12:18;;;;;;;7.22;2.78;;;;;;;24.84;33.48;100749.03;4157388;28;20472;-69
2022/08/12 07:14:21;;;;;;;4.97;2.08;;;;;;;24.72;33.49;100747.72;4157364;28;20037;-71
2022/08/12 07:16:25;;;;;;;4.30;2.40;;;;;;;24.93;33.39;100743.34;4159269;28;20030;-69
2022/08/12 07:18:31;;;;;;;;;;;;;;;24.90;33.40;100754.09;4164277;28;20041;-68
2022/08/12 07:20:35;;;;;;;4.20;1.90;;;;;;;24.89;33.27;100757.69;4163925;28;19921;-70
2022/08/12 07:22:54;;;;;;;4.03;2.15;;;;;;;25.02;33.28;100758.91;4161335;28;20038;-69
2022/08/12 07:27:18;;;;;;;8.07;2.42;;;;;;;25.15;32.40;100750.41;4164495;28;20057;-71
2022/08/12 07:29:21;;;;;;;4.32;2.28;;;;;;;25.02;33.08;100760.69;4157284;28;20038;-72
2022/08/12 07:31:25;;;;;;;5.47;2.80;;;;;;;25.16;32.64;100757.44;4163585;28;20048;-71
2022/08/12 07:33:31;;;;;;;3.03;2.30;;;;;;;25.23;32.23;100750.94;4152397;28;20041;-71
2022/08/12 07:35:44;;;;;;;4.78;2.22;;;;;;;25.18;32.52;100752.94;4158007;28;20045;-71
2022/08/12 07:37:49;;;;;;;12.43;2.72;;;;;;;25.32;32.44;100755.03;4154451;28;20518;-73
2022/08/12 07:39:52;;;;;;;5.63;2.05;;;;;;;25.23;32.55;100761.59;4171935;28;20033;-72
2022/08/12 07:42:03;;;;;;;5.93;2.10;;;;;;;25.26;32.45;100765.00;4169943;28;20351;-71
2022/08/12 07:44:08;;;;;;;5.55;2.15;;;;;;;25.43;32.02;100758.13;4161473;28;20037;-71
2022/08/12 07:46:14;;;;;;;4.53;2.22;;;;;;;25.48;31.94;100756.13;4142074;28;20035;-71
2022/08/12 07:48:17;;;;;;;5.80;2.00;;;;;;;25.49;32.29;100752.53;4154280;28;20033;-72
2022/08/12 07:50:21;;;;;;;4.18;2.25;;;;;;;25.61;31.58;100760.00;4140498;28;20073;-71
2022/08/12 07:52:25;;;;;;;3.28;2.13;;;;;;;25.64;31.46;100761.63;4169572;28;20064;-72
2022/08/12 07:54:28;;;;;;;4.72;2.03;;;;;;;25.65;31.29;100760.69;4173295;28;20040;-72
2022/08/12 07:56:31;;;;;;;6.30;2.08;;;;;;;25.54;32.10;100754.97;4156942;28;20414;-71
2022/08/12 07:58:37;;;;;;;7.05;2.38;;;;;;;25.68;31.45;100751.72;4157473;28;20083;-72
2022/08/12 08:00:40;;;;;;;7.03;2.03;;;;;;;25.67;31.96;100750.88;4155525;28;20038;-71
2022/08/12 08:02:43;;;;;;;6.63;1.80;;;;;;;25.73;31.95;100752.38;4156971;28;20042;-70
2022/08/12 08:04:59;;;;;;;7.13;1.98;;;;;;;25.83;31.95;100751.06;4157136;28;20069;-72
2022/08/12 08:07:09;;;;;;;4.95;2.00;;;;;;;25.78;32.04;100742.38;4156884;28;20473;-72
2022/08/12 08:09:14;;;;;;;2.17;1.60;;;;;;;25.93;31.94;100739.03;4157794;28;20048;-72
2022/08/12 08:13:39;;;;;;;2.70;1.83;;;;;;;26.21;31.73;100739.59;4159128;28;20056;-73
2022/08/12 08:15:44;;;;;;;7.00;2.42;;;;;;;26.39;30.93;100744.06;4156190;28;20045;-71
2022/08/12 08:18:06;;;;;;;5.57;2.20;;;;;;;26.53;30.16;100739.84;4157817;28;20048;-73
2022/08/12 08:20:09;;;;;;;4.85;2.10;;;;;;;26.52;30.00;100744.34;4177215;28;20044;-72
2022/08/12 08:22:14;;;;;;;6.32;1.52;;;;;;;26.36;30.50;100744.22;4159800;28;20045;-72
2022/08/12 08:24:17;;;;;;;3.92;2.22;;;;;;;26.63;30.08;100741.13;4161556;28;20060;-72
2022/08/12 08:26:25;;;;;;;11.02;2.53;;;;;;;26.76;30.09;100747.63;4165187;28;20048;-72
2022/08/12 08:28:28;;;;;;;4.60;1.60;;;;;;;26.58;29.96;100748.50;4161685;28;20041;-73
2022/08/12 08:30:33;;;;;;;3.17;1.85;;;;;;;26.81;29.59;100747.44;4162716;28;20044;-71
2022/08/12 08:32:35;;;;;;;;;;;;;;;26.83;29.52;100743.72;4153721;28;20049;-73
2022/08/12 08:34:38;;;;;;;5.45;2.20;;;;;;;26.85;29.50;100746.31;4159513;28;20426;-73
2022/08/12 08:36:57;;;;;;;3.85;1.98;;;;;;;26.87;29.20;100744.47;4157684;28;20072;-73
2022/08/12 08:39:01;;;;;;;2.42;1.85;;;;;;;27.04;29.32;100746.25;4160312;28;20069;-73
2022/08/12 08:43:45;;;;;;;5.10;2.35;;;;;;;27.25;29.47;100743.44;4157534;28;20125;-73
2022/08/12 08:45:48;;;;;;;2.88;1.55;;;;;;;27.12;28.90;100736.06;4158029;28;20041;-73
2022/08/12 08:47:51;;;;;;;4.38;2.10;;;;;;;27.18;28.35;100741.09;4156427;28;20657;-71
2022/08/12 08:49:59;;;;;;;5.40;2.05;;;;;;;27.33;28.61;100735.91;4160047;28;20044;-71
2022/08/12 08:52:02;;;;;;;5.55;2.25;;;;;;;27.46;28.19;100731.69;4162057;28;20045;-73
2022/08/12 08:54:09;;;;;;;2.28;1.52;;;;;;;27.38;28.23;100733.03;4154884;28;20512;-73
2022/08/12 08:56:12;;;;;;;3.97;1.83;;;;;;;27.39;28.35;100724.94;4161606;28;20385;-73
2022/08/12 08:58:17;;;;;;;4.32;2.00;;;;;;;27.51;28.19;100724.31;4156346;28;20121;-70
2022/08/12 09:00:21;;;;;;;5.05;2.00;;;;;;;27.54;28.02;100727.75;4159084;28;20046;-71
2022/08/12 09:02:24;;;;;;;6.53;2.28;;;;;;;27.55;27.68;100726.81;4157895;28;20034;-73
2022/08/12 09:04:27;;;;;;;3.25;2.08;;;;;;;27.57;27.93;100722.25;4186183;28;20041;-73
2022/08/12 09:06:57;;;;;;;6.28;1.88;;;;;;;27.41;28.49;100724.88;4157162;28;20068;-72
2022/08/12 09:09:04;;;;;;;3.00;2.05;;;;;;;27.44;28.83;100717.56;4157331;28;20037;-71
2022/08/12 09:13:58;;;;;;;5.07;1.80;;;;;;;27.44;28.40;100722.91;4156197;28;19925;-64
2022/08/12 09:16:13;;;;;;;1.80;1.70;;;;;;;27.50;28.38;100722.59;4160318;28;20041;-65
2022/08/12 09:18:17;;;;;;;2.83;1.95;;;;;;;27.75;27.32;100707.94;4163294;28;20523;-65
2022/08/12 09:20:35;;;;;;;5.75;1.50;;;;;;;27.77;27.39;100714.03;4169301;28;20042;-65
2022/08/12 09:22:38;;;;;;;3.53;1.63;;;;;;;27.90;26.97;100708.91;4158202;28;20565;-65
2022/08/12 09:24:41;;;;;;;2.47;1.48;;;;;;;27.87;27.02;100704.56;4161166;28;20116;-65
2022/08/12 09:26:48;;;;;;;7.20;2.03;;;;;;;28.18;26.47;100708.28;4162304;28;20096;-65
2022/08/12 09:28:51;;;;;;;3.33;1.80;;;;;;;28.08;27.04;100709.75;4158297;28;20632;-65
2022/08/12 09:30:57;;;;;;;4.63;2.22;;;;;;;28.07;27.54;100708.00;4156673;28;20069;-65
2022/08/12 09:33:00;;;;;;;8.50;1.67;;;;;;;28.11;26.61;100712.25;4158065;28;20037;-65
2022/08/12 09:35:23;;;;;;;5.80;1.95;;;;;;;28.02;26.88;100699.38;4188200;28;20350;-65
2022/08/12 09:37:30;;;;;;;2.80;2.15;;;;;;;28.24;26.29;100700.84;4160644;28;20064;-65
2022/08/12 09:39:53;;;;;;;2.38;1.45;;;;;;;28.23;26.43;100696.44;4156891;28;20411;-65
2022/08/12 09:47:28;;;;;;;3.42;1.67;;;;;;;28.17;26.61;100685.16;4157691;28;20038;-65
2022/08/12 09:49:35;;;;;;;2.08;1.50;;;;;;;28.34;25.86;100688.69;4155805;28;20499;-66
2022/08/12 09:51:46;;;;;;;4.70;1.77;;;;;;;28.35;26.55;100683.25;4159160;28;20483;-65
2022/08/12 09:54:05;;;;;;;7.55;2.20;;;;;;;28.48;26.04;100679.91;4153716;28;20095;-65
2022/08/12 09:56:30;;;;;;;6.88;1.63;;;;;;;28.49;26.08;100684.28;4159140;28;20501;-65
2022/08/12 09:58:55;;;;;;;5.65;1.60;;;;;;;28.51;25.73;100675.22;4161349;28;20049;-66
2022/08/12 10:01:05;;;;;;;16.50;1.88;;;;;;;28.62;25.52;100679.13;4158423;28;20407;-65
2022/08/12 10:03:27;;;;;;;3.97;2.10;;;;;;;28.53;25.51;100673.34;4157294;28;20209;-65
2022/08/12 10:05:39;;;;;;;3.92;1.33;;;;;;;28.49;25.68;100668.22;4158387;28;20121;-65
2022/08/12 10:08:04;;;;;;;2.67;2.13;;;;;;;28.71;25.44;100662.53;4157665;28;20034;-65
2022/08/12 10:10:10;;;;;;;2.72;1.90;;;;;;;28.70;25.02;100656.31;4154668;28;20038;-65
2022/08/12 10:15:09;;;;;;;3.47;1.63;;;;;;;28.66;25.52;100648.56;4159629;28;20072;-65
2022/08/12 10:17:32;;;;;;;1.48;1.33;;;;;;;28.81;25.34;100653.03;4159716;28;20038;-64
2022/08/12 10:19:36;;;;;;;2.85;1.58;;;;;;;28.93;24.97;100663.94;4160904;28;20037;-65
2022/08/12 10:21:40;;;;;;;4.63;2.20;;;;;;;28.94;24.79;100641.56;4157982;28;20530;-65
2022/08/12 10:23:46;;;;;;;4.05;1.55;;;;;;;28.79;25.37;100646.88;4161585;28;20038;-65
2022/08/12 10:31:06;;;;;;;4.43;1.90;;;;;;;29.20;24.50;100631.97;4159893;28;20064;-64
2022/08/12 10:33:18;;;;;;;2.53;1.60;;;;;;;29.25;24.45;100621.88;4156539;28;20042;-65
2022/08/12 10:35:33;;;;;;;3.25;1.60;;;;;;;29.35;23.90;100632.84;4155863;28;20395;-64
2022/08/12 10:37:40;;;;;;;5.38;1.80;;;;;;;29.31;24.21;100634.03;4154110;28;20042;-65
2022/08/12 10:40:04;;;;;;;4.63;1.80;;;;;;;29.29;23.83;100625.22;4158559;28;20480;-65
2022/08/12 10:44:37;;;;;;;5.95;1.70;;;;;;;29.29;23.95;100614.50;4156128;28;20054;-66
2022/08/12 10:46:44;;;;;;;2.63;1.58;;;;;;;29.22;24.26;100624.75;4159112;28;20043;-65
2022/08/12 10:48:52;;;;;;;1.88;1.30;;;;;;;29.23;24.50;100615.72;4162348;28;20071;-65
2022/08/12 10:51:10;;;;;;;4.97;2.15;;;;;;;29.31;23.89;100612.59;4158373;28;20434;-65
2022/08/12 10:53:33;;;;;;;4.50;1.75;;;;;;;29.42;24.41;100619.00;4157249;28;20087;-70
2022/08/12 10:55:48;;;;;;;2.90;1.63;;;;;;;29.53;23.50;100612.97;4162720;28;20128;-64
2022/08/12 10:57:58;;;;;;;3.50;1.80;;;;;;;29.48;23.84;100611.53;4155982;28;20041;-64
2022/08/12 11:00:21;;;;;;;3.08;1.70;;;;;;;29.68;23.43;100610.28;4158202;28;20047;-65
2022/08/12 11:02:49;;;;;;;2.30;1.63;;;;;;;29.60;23.81;100608.94;4156856;28;20044;-64
2022/08/12 11:05:12;;;;;;;3.60;1.52;;;;;;;29.70;24.05;100603.00;4163255;28;20056;-64
2022/08/12 11:07:37;;;;;;;7.95;2.38;;;;;;;29.96;23.33;100612.06;4159470;28;20050;-64
2022/08/12 11:10:00;;;;;;;3.83;1.70;;;;;;;30.01;23.07;100614.44;4162138;28;20049;-65
2022/08/12 11:12:06;;;;;;;3.97;2.00;;;;;;;29.85;23.17;100607.41;4159394;28;20573;-65
2022/08/12 11:14:30;;;;;;;4.32;1.70;;;;;;;29.74;23.95;100610.72;4163081;28;20385;-65
2022/08/12 11:16:55;;;;;;;3.22;1.75;;;;;;;29.72;24.05;100601.09;4174414;28;20052;-65
2022/08/12 11:19:21;;;;;;;3.47;1.48;;;;;;;29.75;23.88;100598.22;4153213;28;20480;-64
2022/08/12 11:21:24;;;;;;;2.90;1.85;;;;;;;29.80;24.28;100593.41;4162592;28;20069;-65
2022/08/12 11:23:47;;;;;;;5.30;1.30;;;;;;;29.79;24.40;100594.38;4157434;28;20136;-65
2022/08/12 11:25:55;;;;;;;4.10;1.63;;;;;;;30.01;23.48;100596.56;4162357;28;20108;-64
2022/08/12 11:28:07;;;;;;;5.07;1.90;;;;;;;30.16;22.48;100594.69;4161619;28;20041;-65
2022/08/12 11:30:15;;;;;;;6.85;1.85;;;;;;;30.13;22.95;100605.59;4160330;28;20104;-65
2022/08/12 11:32:34;;;;;;;1.55;1.42;;;;;;;30.05;23.20;100591.84;4159572;28;20044;-65
2022/08/12 11:34:42;;;;;;;1.63;1.30;;;;;;;30.24;22.80;100586.13;4160884;28;20041;-65
2022/08/12 11:36:59;;;;;;;1.75;1.50;;;;;;;30.39;22.55;100582.41;4161949;28;20050;-66
2022/08/12 11:39:07;;;;;;;2.85;1.60;;;;;;;30.55;22.22;100579.59;4159268;28;20043;-65
2022/08/12 11:41:14;;;;;;;5.20;1.60;;;;;;;30.40;22.21;100576.09;4159953;28;20168;-65
2022/08/12 11:43:17;;;;;;;4.47;1.90;;;;;;;30.38;21.84;100578.00;4135870;28;20030;-65
2022/08/12 11:45:22;;;;;;;5.60;1.60;;;;;;;30.33;21.85;100573.91;4159743;28;20041;-65
2022/08/12 11:47:25;;;;;;;6.07;1.90;;;;;;;30.32;21.65;100565.00;4155828;28;20030;-64
2022/08/12 11:49:28;;;;;;;3.30;1.50;;;;;;;30.18;22.19;100575.81;4160830;28;20040;-64
2022/08/12 11:51:36;;;;;;;2.70;1.58;;;;;;;30.00;22.24;100562.66;4161193;28;20037;-64